createdAt,value
2023-01-19T00:00:08.369Z,957.46
2023-01-19T00:30:08.508Z,957.48
2023-01-19T01:00:08.510Z,957.66
2023-01-19T01:30:08.412Z,957.85
2023-01-19T02:00:08.261Z,957.96
2023-01-19T02:30:09.002Z,958.12
2023-01-19T03:00:08.573Z,958.05
2023-01-19T03:30:08.518Z,958.14
2023-01-19T04:00:08.387Z,958.21
2023-01-19T04:30:08.358Z,958.49
2023-01-19T05:00:08.237Z,958.77
2023-01-19T05:30:08.528Z,958.91
2023-01-19T06:00:08.404Z,959.1
2023-01-19T06:30:08.332Z,959.36
2023-01-19T07:30:08.275Z,959.51
2023-01-19T08:30:08.555Z,960.2
2023-01-19T09:00:08.546Z,960.28
2023-01-19T09:30:08.317Z,960.44
2023-01-19T10:00:08.199Z,960.45
2023-01-19T10:30:08.211Z,960.34
2023-01-19T11:30:08.359Z,960.13
2023-01-19T12:00:08.006Z,959.58
2023-01-19T12:30:08.306Z,959.27
2023-01-19T13:00:08.047Z,959.01
2023-01-19T13:30:07.995Z,958.79
2023-01-19T14:00:07.981Z,958.56
2023-01-19T14:30:08.109Z,958.41
2023-01-19T15:00:08.224Z,958.37
2023-01-19T15:30:08.019Z,958.32
2023-01-19T16:00:09.676Z,958.2
2023-01-19T16:30:07.962Z,957.84
2023-01-19T17:30:07.855Z,957.6
2023-01-19T18:00:07.555Z,957.44
2023-01-19T18:30:07.954Z,957.32
2023-01-19T19:00:07.603Z,957.24
2023-01-19T19:30:07.905Z,956.98
2023-01-19T20:30:16.839Z,957.2
2023-01-19T21:00:07.522Z,957.49
2023-01-19T22:00:07.462Z,957.71
2023-01-19T22:30:07.658Z,958.25
2023-01-19T23:30:07.539Z,958.42
